Time;durP1;ratioP1;P1;durP2;ratioP2;P2;SDS_P1;SDS_P2;PMS_P1;PMS_P2;Temp;Humidity;BMP_temperature;BMP_pressure;BME280_temperature;BME280_humidity;BME280_pressure;Samples;Min_cycle;Max_cycle;Signal;HPM_P1;HPM_P2
2021/08/05 00:00:39;;;;;;;5.65;3.38;;;13.70;99.90;;;;;;5091987;28;20380;-81
2021/08/05 00:03:05;;;;;;;6.38;3.47;;;13.60;99.90;;;;;;5091686;28;20028;-81
2021/08/05 00:05:31;;;;;;;5.40;3.83;;;13.50;99.90;;;;;;5091951;28;20031;-81
2021/08/05 00:07:56;;;;;;;8.68;4.53;;;13.40;99.90;;;;;;5091317;28;20028;-81
2021/08/05 00:10:22;;;;;;;6.28;4.10;;;13.30;99.90;;;;;;5091865;28;20081;-81
2021/08/05 00:12:48;;;;;;;5.43;4.07;;;13.20;99.90;;;;;;5091495;28;20039;-80
2021/08/05 00:15:13;;;;;;;7.70;3.88;;;13.10;99.90;;;;;;5091794;28;20428;-81
2021/08/05 00:17:39;;;;;;;6.07;3.53;;;13.00;99.90;;;;;;5073619;28;20016;-81
2021/08/05 00:20:05;;;;;;;6.90;4.78;;;12.90;99.90;;;;;;5073349;28;20060;-80
2021/08/05 00:22:32;;;;;;;5.10;3.92;;;12.90;99.90;;;;;;5084058;28;20501;-81
2021/08/05 00:24:57;;;;;;;6.93;4.00;;;12.90;99.90;;;;;;5091605;28;20164;-80
2021/08/05 00:27:23;;;;;;;6.65;4.25;;;13.00;99.90;;;;;;5073440;28;20508;-80
2021/08/05 00:29:48;;;;;;;5.05;3.83;;;13.00;99.90;;;;;;5078371;28;20035;-81
2021/08/05 00:32:14;;;;;;;5.18;4.40;;;13.00;99.90;;;;;;5053156;28;20025;-80
2021/08/05 00:34:41;;;;;;;7.95;4.38;;;13.00;99.90;;;;;;5071420;28;20103;-81
2021/08/05 00:37:06;;;;;;;6.95;3.78;;;13.00;99.90;;;;;;5071291;28;20128;-81
2021/08/05 00:39:32;;;;;;;8.90;5.05;;;13.10;99.90;;;;;;5078823;28;20107;-81
2021/08/05 00:41:58;;;;;;;7.72;4.80;;;13.10;99.90;;;;;;5091228;28;20036;-81
2021/08/05 00:44:23;;;;;;;5.93;5.00;;;13.10;99.90;;;;;;5091483;28;20021;-81
2021/08/05 00:46:49;;;;;;;4.93;4.43;;;13.20;99.90;;;;;;5091457;28;20025;-81
2021/08/05 00:49:14;;;;;;;5.80;5.00;;;13.30;99.90;;;;;;5070755;28;20397;-81
2021/08/05 00:51:40;;;;;;;9.50;5.68;;;13.30;99.90;;;;;;5071048;28;20110;-81
2021/08/05 00:54:07;;;;;;;6.97;5.20;;;13.40;99.90;;;;;;5071163;28;20025;-81
2021/08/05 00:56:33;;;;;;;9.38;5.25;;;13.40;99.90;;;;;;5071127;28;20024;-81
2021/08/05 00:58:58;;;;;;;6.35;4.85;;;13.40;99.90;;;;;;5071106;28;20472;-81
2021/08/05 01:01:27;;;;;;;7.45;4.28;;;13.40;99.90;;;;;;5073277;28;20028;-81
2021/08/05 01:03:56;;;;;;;9.20;4.78;;;13.40;99.90;;;;;;5053237;28;20028;-81
2021/08/05 01:06:36;;;;;;;5.82;4.75;;;13.40;99.90;;;;;;5056379;28;20055;-81
2021/08/05 01:09:22;;;;;;;5.10;4.13;;;13.40;99.90;;;;;;5074600;28;20041;-81
2021/08/05 01:12:04;;;;;;;5.20;4.03;;;13.40;99.90;;;;;;5073838;28;20020;-81
2021/08/05 01:14:35;;;;;;;6.45;4.45;;;13.40;99.90;;;;;;5094909;28;20067;-81
2021/08/05 01:17:02;;;;;;;7.82;4.30;;;13.30;99.90;;;;;;5094792;28;20024;-81
2021/08/05 01:19:39;;;;;;;6.85;4.32;;;13.20;99.90;;;;;;5076481;28;20020;-81
2021/08/05 01:22:24;;;;;;;4.45;3.67;;;13.20;99.90;;;;;;5076895;28;20021;-81
2021/08/05 01:25:09;;;;;;;5.55;4.35;;;13.10;99.90;;;;;;5074454;28;20040;-81
2021/08/05 01:27:35;;;;;;;9.73;4.43;;;13.00;99.90;;;;;;5074597;28;20036;-81
2021/08/05 01:30:02;;;;;;;7.60;4.40;;;13.00;99.90;;;;;;5056280;28;20078;-81
2021/08/05 01:32:28;;;;;;;4.68;3.80;;;12.90;99.90;;;;;;5073220;28;20028;-81
2021/08/05 01:34:56;;;;;;;4.85;3.88;;;13.00;99.90;;;;;;5094545;28;20020;-80
2021/08/05 01:37:24;;;;;;;5.82;4.35;;;13.00;99.90;;;;;;5094391;28;20024;-81
2021/08/05 01:39:51;;;;;;;6.22;4.68;;;13.00;99.90;;;;;;5094423;28;20384;-81
2021/08/05 01:42:19;;;;;;;6.43;4.70;;;13.10;99.90;;;;;;5090430;28;20449;-81
2021/08/05 01:44:46;;;;;;;5.53;4.90;;;13.20;99.90;;;;;;5076278;28;20073;-80
2021/08/05 01:47:14;;;;;;;5.35;4.22;;;13.30;99.90;;;;;;5081273;28;20024;-81
2021/08/05 01:49:41;;;;;;;5.15;4.22;;;13.40;99.90;;;;;;5074074;28;20020;-81
2021/08/05 01:52:07;;;;;;;7.35;4.07;;;13.30;99.90;;;;;;5074765;28;20458;-81
2021/08/05 01:54:34;;;;;;;5.70;4.55;;;13.40;99.90;;;;;;5073801;28;20074;-80
2021/08/05 01:56:59;;;;;;;14.32;5.13;;;13.40;99.90;;;;;;5073670;28;20024;-80
2021/08/05 01:59:25;;;;;;;8.02;4.85;;;13.40;99.90;;;;;;5055880;28;20469;-81
2021/08/05 02:01:51;;;;;;;7.47;5.50;;;13.50;99.90;;;;;;5067661;28;20077;-80
2021/08/05 02:04:34;;;;;;;6.55;4.85;;;13.50;99.90;;;;;;5093973;28;20444;-81
2021/08/05 02:07:13;;;;;;;7.40;5.60;;;13.60;99.90;;;;;;5093846;28;20028;-81
2021/08/05 02:09:57;;;;;;;6.53;5.07;;;13.60;99.90;;;;;;5093907;28;20099;-80
2021/08/05 02:12:23;;;;;;;;;;;13.60;99.90;;;;;;5079604;28;20028;-80
2021/08/05 02:14:53;;;;;;;6.65;5.15;;;13.60;99.90;;;;;;5073546;28;19926;-81
2021/08/05 02:17:18;;;;;;;8.27;5.60;;;13.60;99.90;;;;;;5054579;28;20029;-80
2021/08/05 02:19:46;;;;;;;6.00;4.50;;;13.60;99.90;;;;;;5073332;28;20032;-80
2021/08/05 02:22:12;;;;;;;9.65;5.13;;;13.70;99.90;;;;;;5082298;28;20487;-80
2021/08/05 02:24:39;;;;;;;9.93;6.22;;;13.70;99.90;;;;;;5088751;28;20382;-81
2021/08/05 02:27:04;;;;;;;11.07;5.75;;;13.80;99.90;;;;;;5073168;28;20021;-81
2021/08/05 02:29:31;;;;;;;6.68;5.22;;;13.80;99.90;;;;;;5073204;28;20040;-81
2021/08/05 02:31:57;;;;;;;9.70;5.45;;;13.80;99.90;;;;;;5059107;28;20024;-81
2021/08/05 02:34:24;;;;;;;8.40;5.25;;;13.80;99.90;;;;;;5074976;28;20035;-80
2021/08/05 02:36:51;;;;;;;7.05;5.25;;;13.80;99.90;;;;;;5075122;28;20051;-81
2021/08/05 02:39:17;;;;;;;7.13;5.25;;;13.80;99.90;;;;;;5093220;28;20028;-80
2021/08/05 02:41:43;;;;;;;9.23;4.78;;;13.80;99.90;;;;;;5092943;28;20020;-80
2021/08/05 02:44:09;;;;;;;5.50;4.82;;;13.90;99.90;;;;;;5074483;28;20036;-80
2021/08/05 02:46:35;;;;;;;8.32;5.07;;;13.90;99.90;;;;;;5093045;28;20506;-81
2021/08/05 02:49:02;;;;;;;6.47;5.57;;;13.80;99.90;;;;;;5093002;28;20028;-81
2021/08/05 02:51:29;;;;;;;5.50;4.10;;;13.80;99.90;;;;;;5092870;28;20046;-81
2021/08/05 02:53:55;;;;;;;6.75;5.82;;;13.80;99.90;;;;;;5077482;28;20033;-81
2021/08/05 02:56:21;;;;;;;6.57;4.57;;;13.80;99.90;;;;;;5072553;28;20451;-81
2021/08/05 02:58:47;;;;;;;8.80;4.70;;;13.90;99.90;;;;;;5054773;28;20036;-80
2021/08/05 03:01:13;;;;;;;10.23;5.22;;;13.90;99.90;;;;;;5072421;28;20031;-80
2021/08/05 03:03:40;;;;;;;6.03;5.43;;;13.90;99.90;;;;;;5063873;28;20416;-80
2021/08/05 03:06:06;;;;;;;6.80;5.43;;;14.00;99.90;;;;;;5092969;28;20020;-80
2021/08/05 03:08:42;;;;;;;6.47;4.85;;;14.00;99.90;;;;;;5092638;28;20169;-81
2021/08/05 03:11:07;;;;;;;9.20;4.57;;;14.00;99.90;;;;;;5074427;28;20028;-81
2021/08/05 03:13:33;;;;;;;9.20;4.35;;;14.10;99.90;;;;;;5091610;28;20032;-81
2021/08/05 03:15:59;;;;;;;8.93;5.68;;;14.20;99.90;;;;;;5092591;28;20047;-81
2021/08/05 03:18:24;;;;;;;10.60;6.18;;;14.20;99.90;;;;;;5092422;28;20031;-81
2021/08/05 03:20:50;;;;;;;11.93;5.32;;;14.20;99.90;;;;;;5092536;28;20101;-81
2021/08/05 03:23:15;;;;;;;7.75;5.95;;;14.30;99.90;;;;;;5091855;28;20535;-81
2021/08/05 03:25:41;;;;;;;6.35;4.93;;;14.30;99.90;;;;;;5092341;28;20036;-81
2021/08/05 03:28:06;;;;;;;6.53;5.00;;;14.20;99.90;;;;;;5092237;28;20107;-81
2021/08/05 03:30:32;;;;;;;8.73;5.07;;;14.40;99.90;;;;;;5074185;28;20028;-81
2021/08/05 03:33:00;;;;;;;5.03;3.80;;;14.40;99.90;;;;;;5073818;28;20396;-80
2021/08/05 03:35:26;;;;;;;7.05;5.00;;;14.50;99.90;;;;;;5075869;28;20027;-81
2021/08/05 03:37:52;;;;;;;8.63;5.50;;;14.60;99.90;;;;;;5071980;28;20043;-81
2021/08/05 03:40:18;;;;;;;7.40;4.65;;;14.60;99.90;;;;;;5054025;28;20024;-80
2021/08/05 03:42:43;;;;;;;9.70;5.03;;;14.70;99.90;;;;;;5071703;28;20400;-81
2021/08/05 03:45:09;;;;;;;11.13;5.50;;;14.70;99.90;;;;;;5072445;28;20517;-81
2021/08/05 03:47:35;;;;;;;4.95;3.72;;;14.70;99.90;;;;;;5071752;28;20032;-81
2021/08/05 03:50:00;;;;;;;10.00;5.55;;;14.70;99.90;;;;;;5054007;28;20025;-81
2021/08/05 03:52:26;;;;;;;6.45;5.10;;;14.70;99.90;;;;;;5071554;28;20033;-81
2021/08/05 03:54:51;;;;;;;10.32;4.57;;;14.70;99.90;;;;;;5076982;28;20395;-80
2021/08/05 03:57:17;;;;;;;9.48;4.55;;;14.80;99.90;;;;;;5091942;28;20366;-80
2021/08/05 03:59:43;;;;;;;7.45;4.30;;;14.80;99.90;;;;;;5091872;28;20024;-81
2021/08/05 04:02:08;;;;;;;8.07;5.10;;;14.80;99.90;;;;;;5091730;28;20127;-80
2021/08/05 04:04:34;;;;;;;9.23;5.10;;;14.80;99.90;;;;;;5091574;28;20039;-81
2021/08/05 04:06:59;;;;;;;6.38;5.28;;;14.80;99.90;;;;;;5071693;28;20025;-80
2021/08/05 04:09:25;;;;;;;10.55;4.53;;;14.90;99.90;;;;;;5071775;28;20558;-80
2021/08/05 04:11:50;;;;;;;8.95;4.80;;;14.90;99.90;;;;;;5071462;28;20031;-81
2021/08/05 04:14:16;;;;;;;7.97;6.38;;;14.90;99.90;;;;;;5053630;28;20082;-81
2021/08/05 04:16:41;;;;;;;8.25;6.30;;;14.90;99.90;;;;;;5067994;28;20037;-81
2021/08/05 04:19:07;;;;;;;10.70;7.20;;;15.00;99.90;;;;;;5091747;28;20020;-81
2021/08/05 04:21:32;;;;;;;12.68;7.15;;;14.90;99.90;;;;;;5073450;28;20027;-80
2021/08/05 04:23:58;;;;;;;13.60;7.25;;;15.00;99.90;;;;;;5091553;28;20036;-80
2021/08/05 04:26:24;;;;;;;9.07;6.30;;;15.10;99.90;;;;;;5063847;28;20028;-81
2021/08/05 04:28:49;;;;;;;11.38;7.65;;;15.10;99.90;;;;;;5053594;28;20032;-80
2021/08/05 04:31:15;;;;;;;15.60;8.15;;;15.10;99.90;;;;;;5071273;28;20040;-81
2021/08/05 04:33:40;;;;;;;12.18;8.65;;;15.20;99.90;;;;;;5071333;28;20021;-81
2021/08/05 04:36:06;;;;;;;10.80;7.07;;;15.20;99.90;;;;;;5072476;28;20099;-81
2021/08/05 04:38:31;;;;;;;8.45;6.45;;;15.20;99.90;;;;;;5053344;28;20033;-81
2021/08/05 04:40:57;;;;;;;10.57;7.30;;;15.30;99.90;;;;;;5074254;28;20020;-80
2021/08/05 04:43:22;;;;;;;11.23;7.05;;;15.30;99.90;;;;;;5075076;28;20020;-81
2021/08/05 04:45:48;;;;;;;8.07;6.43;;;15.40;99.90;;;;;;5057483;28;20115;-81
2021/08/05 04:48:13;;;;;;;13.98;8.48;;;15.50;99.90;;;;;;5075580;28;20064;-81
2021/08/05 04:50:43;;;;;;;10.45;6.97;;;15.50;99.90;;;;;;5075122;28;20052;-81
2021/08/05 04:53:10;;;;;;;11.50;7.60;;;15.50;99.90;;;;;;5074726;28;20388;-81
2021/08/05 04:55:35;;;;;;;10.50;7.63;;;15.50;99.90;;;;;;5074990;28;20067;-81
2021/08/05 04:58:06;;;;;;;10.18;7.07;;;15.60;99.90;;;;;;5086892;28;20055;-81
2021/08/05 05:00:32;;;;;;;9.98;6.28;;;15.60;99.90;;;;;;5095100;28;20132;-81
2021/08/05 05:02:58;;;;;;;8.30;5.82;;;15.60;99.90;;;;;;5079403;28;20028;-81
2021/08/05 05:05:25;;;;;;;9.82;6.38;;;15.70;99.90;;;;;;5074862;28;20086;-80
2021/08/05 05:07:51;;;;;;;6.82;5.65;;;15.70;99.90;;;;;;5074635;28;20455;-81
2021/08/05 05:10:17;;;;;;;5.20;4.55;;;15.80;99.90;;;;;;5056826;28;20029;-80
2021/08/05 05:12:44;;;;;;;6.35;4.53;;;15.70;99.90;;;;;;5081021;28;20093;-81
2021/08/05 05:15:11;;;;;;;7.15;5.38;;;15.80;99.90;;;;;;5094988;28;20035;-81
2021/08/05 05:17:39;;;;;;;7.90;5.40;;;15.80;99.90;;;;;;5094833;28;20028;-80
2021/08/05 05:20:05;;;;;;;7.75;5.75;;;15.90;99.90;;;;;;5076683;28;20058;-80
2021/08/05 05:22:32;;;;;;;15.13;5.85;;;15.90;99.90;;;;;;5071125;28;20385;-81
2021/08/05 05:24:58;;;;;;;4.72;4.25;;;16.00;99.90;;;;;;5074350;28;20115;-80
2021/08/05 05:27:24;;;;;;;6.68;4.82;;;16.00;99.90;;;;;;5094068;28;20017;-80
2021/08/05 05:29:51;;;;;;;6.57;4.00;;;16.00;99.90;;;;;;5076515;28;20024;-80
2021/08/05 05:32:17;;;;;;;9.88;4.35;;;16.10;99.90;;;;;;5094034;28;20035;-80
2021/08/05 05:34:43;;;;;;;4.72;3.67;;;16.10;99.90;;;;;;5074271;28;20036;-80
2021/08/05 05:37:08;;;;;;;11.68;4.30;;;16.20;99.90;;;;;;5074147;28;20021;-81
2021/08/05 05:39:35;;;;;;;8.70;4.00;;;16.20;99.90;;;;;;5056338;28;20380;-80
2021/08/05 05:42:00;;;;;;;8.68;4.22;;;16.30;99.90;;;;;;5073874;28;20393;-80
2021/08/05 05:44:26;;;;;;;5.05;2.75;;;16.30;99.90;;;;;;5088814;28;20028;-80
2021/08/05 05:46:51;;;;;;;4.25;3.35;;;16.30;99.90;;;;;;5094289;28;20038;-81
2021/08/05 05:49:17;;;;;;;7.25;3.50;;;16.40;99.90;;;;;;5094310;28;20028;-80
2021/08/05 05:51:43;;;;;;;5.35;3.92;;;16.50;99.90;;;;;;5092714;28;20020;-80
2021/08/05 05:54:08;;;;;;;8.63;3.33;;;16.60;99.90;;;;;;5075130;28;20108;-80
2021/08/05 05:56:34;;;;;;;4.28;2.85;;;16.80;99.90;;;;;;5073719;28;20527;-80
2021/08/05 05:58:59;;;;;;;4.93;3.10;;;16.90;99.90;;;;;;5073932;28;20491;-80
2021/08/05 06:01:25;;;;;;;3.08;2.75;;;16.90;99.90;;;;;;5058655;28;20032;-81
2021/08/05 06:03:51;;;;;;;6.32;3.55;;;17.10;99.90;;;;;;5068534;28;20058;-80
2021/08/05 06:06:16;;;;;;;6.18;3.75;;;17.10;99.90;;;;;;5093604;28;20031;-80
2021/08/05 06:08:42;;;;;;;6.15;3.95;;;17.20;99.90;;;;;;5093608;28;20035;-82
2021/08/05 06:11:07;;;;;;;6.63;3.55;;;17.30;99.90;;;;;;5093561;28;20081;-80
2021/08/05 06:13:33;;;;;;;6.07;3.20;;;17.40;99.90;;;;;;5085246;28;20032;-85
2021/08/05 06:15:58;;;;;;;4.40;3.00;;;17.40;99.90;;;;;;5073428;28;20059;-80
2021/08/05 06:18:24;;;;;;;7.75;2.92;;;17.40;99.90;;;;;;5073199;28;20048;-81
2021/08/05 06:20:50;;;;;;;8.38;3.20;;;17.60;99.90;;;;;;5055451;28;20017;-80
2021/08/05 06:23:15;;;;;;;4.68;2.92;;;17.60;99.90;;;;;;5055327;28;20024;-81
2021/08/05 06:25:41;;;;;;;4.97;2.58;;;17.60;99.90;;;;;;5055082;28;20036;-80
2021/08/05 06:28:07;;;;;;;6.55;3.17;;;17.60;99.90;;;;;;5055471;28;20040;-80
2021/08/05 06:30:32;;;;;;;9.65;3.17;;;17.70;99.90;;;;;;5073107;28;20520;-80
2021/08/05 06:32:58;;;;;;;8.25;2.92;;;17.60;99.90;;;;;;5072764;28;20036;-80
2021/08/05 06:35:24;;;;;;;13.05;2.90;;;17.50;99.90;;;;;;5073617;28;20033;-81
2021/08/05 06:37:50;;;;;;;6.00;3.28;;;17.50;99.90;;;;;;5072831;28;20078;-80
2021/08/05 06:40:16;;;;;;;4.55;3.08;;;17.50;99.90;;;;;;5072798;28;20020;-80
2021/08/05 06:42:42;;;;;;;6.57;3.38;;;17.50;99.90;;;;;;5072689;28;20024;-81
2021/08/05 06:45:10;;;;;;;6.75;3.60;;;17.60;99.90;;;;;;5084892;28;20048;-80
2021/08/05 06:47:41;;;;;;;7.65;3.72;;;17.60;99.90;;;;;;5092991;28;20449;-80
2021/08/05 06:50:08;;;;;;;6.43;3.10;;;17.70;99.90;;;;;;5068753;28;20111;-81
2021/08/05 06:52:34;;;;;;;10.98;3.90;;;17.80;99.90;;;;;;5092607;28;20051;-80
2021/08/05 06:54:59;;;;;;;9.50;4.05;;;17.80;99.90;;;;;;5084307;28;20516;-80
2021/08/05 06:57:25;;;;;;;16.40;3.80;;;17.90;99.90;;;;;;5072457;28;20021;-80
2021/08/05 06:59:50;;;;;;;14.65;3.90;;;17.90;99.90;;;;;;5072498;28;20020;-80
2021/08/05 07:02:16;;;;;;;8.93;3.85;;;18.00;99.90;;;;;;5072012;28;20025;-81
2021/08/05 07:04:41;;;;;;;5.50;3.13;;;18.00;99.90;;;;;;5056982;28;20025;-80
2021/08/05 07:07:07;;;;;;;6.78;3.22;;;18.00;99.90;;;;;;5092667;28;20420;-81
2021/08/05 07:09:32;;;;;;;9.45;3.28;;;18.10;99.90;;;;;;5092489;28;20384;-80
2021/08/05 07:11:58;;;;;;;8.52;3.67;;;18.10;99.90;;;;;;5092480;28;20103;-81
2021/08/05 07:14:23;;;;;;;22.10;4.65;;;18.10;99.90;;;;;;5092500;28;20035;-80
2021/08/05 07:16:49;;;;;;;6.20;3.55;;;18.30;99.90;;;;;;5056583;28;20115;-81
2021/08/05 07:19:15;;;;;;;6.45;3.03;;;18.20;99.90;;;;;;5072131;28;20021;-81
2021/08/05 07:21:41;;;;;;;11.95;3.33;;;18.30;99.90;;;;;;5072068;28;20032;-80
2021/08/05 07:24:06;;;;;;;9.32;3.05;;;18.40;99.90;;;;;;5054021;28;20408;-81
2021/08/05 07:26:32;;;;;;;10.73;3.90;;;18.60;99.90;;;;;;5055139;28;20170;-81
2021/08/05 07:28:58;;;;;;;8.27;3.85;;;18.70;99.90;;;;;;5054264;28;20504;-83
2021/08/05 07:31:23;;;;;;;6.22;3.95;;;18.70;99.90;;;;;;5071767;28;20030;-81
2021/08/05 07:33:50;;;;;;;8.73;3.28;;;18.80;99.90;;;;;;5071954;28;20111;-81
2021/08/05 07:36:17;;;;;;;4.80;3.33;;;18.80;99.90;;;;;;5078695;28;20380;-82
2021/08/05 07:38:43;;;;;;;9.75;3.63;;;18.90;99.90;;;;;;5073949;28;20024;-81
2021/08/05 07:41:09;;;;;;;8.23;3.35;;;18.80;99.90;;;;;;5092042;28;20107;-81
2021/08/05 07:43:35;;;;;;;7.47;3.42;;;18.90;99.90;;;;;;5074036;28;20054;-82
2021/08/05 07:46:00;;;;;;;4.25;2.58;;;18.80;99.90;;;;;;5089746;28;20063;-83
2021/08/05 07:48:26;;;;;;;9.75;3.78;;;18.90;99.90;;;;;;5053737;28;20020;-84
2021/08/05 07:50:51;;;;;;;7.55;2.75;;;18.70;99.90;;;;;;5071825;28;20389;-83
2021/08/05 07:53:17;;;;;;;7.60;3.13;;;18.80;99.90;;;;;;5071400;28;20036;-82
2021/08/05 07:55:43;;;;;;;5.47;2.60;;;18.80;99.90;;;;;;5053860;28;20024;-82
2021/08/05 07:58:08;;;;;;;7.60;2.63;;;18.80;99.90;;;;;;5088416;28;20036;-81
2021/08/05 08:00:35;;;;;;;6.32;2.33;;;18.70;99.90;;;;;;5072729;28;20025;-82
2021/08/05 08:03:02;;;;;;;6.95;2.50;;;18.80;99.90;;;;;;5071747;28;20025;-82
2021/08/05 08:05:27;;;;;;;5.53;2.22;;;19.00;99.90;;;;;;5071658;28;20029;-86
2021/08/05 08:07:54;;;;;;;6.85;1.98;;;18.80;99.90;;;;;;5071511;28;20444;-85
2021/08/05 08:10:19;;;;;;;4.38;1.63;;;19.00;99.90;;;;;;5066536;28;20032;-82
2021/08/05 08:12:45;;;;;;;2.38;1.80;;;19.00;99.90;;;;;;5091433;28;20454;-85
2021/08/05 08:15:11;;;;;;;9.23;2.42;;;19.10;99.90;;;;;;5075490;28;20027;-82
2021/08/05 08:17:37;;;;;;;4.75;1.98;;;19.10;99.90;;;;;;5077732;28;20035;-83
2021/08/05 08:20:05;;;;;;;8.50;2.22;;;19.10;99.90;;;;;;5087589;28;20392;-83
2021/08/05 08:22:30;;;;;;;8.57;2.47;;;19.20;99.90;;;;;;5075326;28;20025;-83
2021/08/05 08:24:56;;;;;;;5.78;1.60;;;19.30;99.90;;;;;;5057537;28;20033;-85
2021/08/05 08:27:22;;;;;;;3.78;1.73;;;19.30;99.90;;;;;;5057527;28;20024;-82
2021/08/05 08:29:47;;;;;;;4.30;2.08;;;19.20;99.90;;;;;;5078141;28;20499;-83
2021/08/05 08:32:13;;;;;;;6.65;2.78;;;19.20;99.90;;;;;;5095438;28;20074;-82
2021/08/05 08:34:38;;;;;;;4.50;2.25;;;19.10;99.90;;;;;;5095636;28;20028;-83
2021/08/05 08:37:04;;;;;;;6.35;2.13;;;19.00;99.90;;;;;;5095513;28;20028;-83
2021/08/05 08:39:29;;;;;;;5.68;2.10;;;19.10;99.90;;;;;;5077367;28;20047;-81
2021/08/05 08:41:55;;;;;;;5.78;2.40;;;19.10;99.90;;;;;;5059212;28;20119;-84
2021/08/05 08:44:20;;;;;;;4.70;2.10;;;19.20;99.90;;;;;;5069230;28;20024;-87
2021/08/05 08:46:47;;;;;;;5.90;1.95;;;19.10;99.90;;;;;;5073722;28;20104;-85
2021/08/05 08:49:14;;;;;;;6.50;2.20;;;19.40;99.90;;;;;;5074947;28;20024;-84
2021/08/05 08:51:40;;;;;;;4.65;2.20;;;19.50;99.90;;;;;;5069335;28;20471;-83
2021/08/05 08:54:08;;;;;;;6.10;1.40;;;19.50;99.90;;;;;;5077046;28;20408;-80
2021/08/05 08:56:36;;;;;;;5.00;2.15;;;19.70;99.90;;;;;;5095268;28;20027;-82
2021/08/05 08:59:03;;;;;;;5.55;1.80;;;19.90;99.90;;;;;;5095290;28;20055;-84
2021/08/05 09:01:30;;;;;;;31.33;2.92;;;19.90;99.90;;;;;;5068291;28;20028;-85
2021/08/05 09:03:55;;;;;;;7.20;1.90;;;19.80;99.90;;;;;;5074603;28;20396;-83
2021/08/05 09:06:21;;;;;;;4.57;1.92;;;19.80;99.90;;;;;;5074679;28;20036;-83
2021/08/05 09:08:48;;;;;;;3.13;1.80;;;19.90;99.90;;;;;;5074814;28;20028;-83
2021/08/05 09:11:14;;;;;;;6.55;2.30;;;19.70;99.90;;;;;;5059607;28;20027;-84
2021/08/05 09:13:40;;;;;;;4.60;2.15;;;19.60;99.90;;;;;;5094861;28;20048;-83
2021/08/05 09:16:29;;;;;;;2.75;1.95;;;19.50;99.90;;;;;;5083592;28;20024;-84
2021/08/05 09:19:07;;;;;;;6.75;1.65;;;19.50;99.90;;;;;;5071842;28;20096;-82
2021/08/05 09:21:33;;;;;;;5.53;2.22;;;19.40;99.90;;;;;;5065425;28;20021;-83
2021/08/05 09:24:01;;;;;;;2.85;2.28;;;19.30;99.90;;;;;;5059650;28;20035;-83
2021/08/05 09:26:42;;;;;;;7.30;2.03;;;19.20;99.90;;;;;;5088888;28;20027;-84
2021/08/05 09:29:11;;;;;;;3.30;2.15;;;19.00;99.90;;;;;;5070496;28;20031;-84
2021/08/05 09:31:54;;;;;;;6.57;2.45;;;19.00;99.90;;;;;;5071721;28;20024;-83
2021/08/05 09:34:32;;;;;;;4.10;1.92;;;19.10;99.90;;;;;;5071434;28;20032;-83
2021/08/05 09:37:05;;;;;;;4.97;2.55;;;19.10;99.90;;;;;;5088143;28;20032;-84
2021/08/05 09:39:33;;;;;;;8.45;2.72;;;19.40;99.90;;;;;;5052220;28;20028;-83
2021/08/05 09:42:03;;;;;;;4.78;2.55;;;19.60;99.90;;;;;;5081767;28;20295;-83
2021/08/05 09:44:37;;;;;;;5.20;2.40;;;20.00;99.90;;;;;;5077680;28;20020;-82
2021/08/05 09:47:18;;;;;;;5.75;2.13;;;20.40;99.90;;;;;;5073942;28;20029;-80
2021/08/05 09:49:46;;;;;;;6.70;2.20;;;20.80;99.90;;;;;;5075865;28;20021;-81
2021/08/05 09:52:24;;;;;;;6.68;2.15;;;21.30;99.90;;;;;;5093835;28;20062;-80
2021/08/05 09:54:53;;;;;;;3.63;2.00;;;21.50;99.90;;;;;;5094120;28;20059;-80
2021/08/05 09:57:38;;;;;;;3.92;2.30;;;21.70;99.90;;;;;;5094081;28;20472;-80
2021/08/05 10:00:08;;;;;;;7.93;2.55;;;21.90;99.90;;;;;;5073810;28;20377;-80
2021/08/05 10:02:43;;;;;;;3.67;2.03;;;22.00;99.90;;;;;;5066097;28;20032;-80
2021/08/05 10:05:10;;;;;;;4.30;2.38;;;21.90;99.90;;;;;;5093958;28;20024;-80
2021/08/05 10:07:41;;;;;;;7.85;3.05;;;21.80;99.90;;;;;;5093902;28;20070;-80
2021/08/05 10:10:07;;;;;;;6.10;2.53;;;21.80;99.90;;;;;;5075644;28;20020;-81
2021/08/05 10:12:32;;;;;;;6.00;2.75;;;21.50;99.90;;;;;;5074503;28;20029;-80
2021/08/05 10:15:12;;;;;;;12.55;2.72;;;21.60;99.90;;;;;;5086863;28;20024;-80
2021/08/05 10:17:40;;;;;;;3.95;2.30;;;21.60;99.90;;;;;;5093587;28;20024;-80
2021/08/05 10:20:11;;;;;;;6.68;2.30;;;21.80;99.90;;;;;;5093604;28;20480;-80
2021/08/05 10:22:37;;;;;;;4.38;2.03;;;21.80;99.90;;;;;;5076672;28;20184;-81
2021/08/05 10:25:08;;;;;;;6.55;1.80;;;21.90;99.90;;;;;;5083043;28;20028;-80
2021/08/05 10:27:34;;;;;;;5.60;1.92;;;21.80;99.90;;;;;;5065215;28;20508;-80
2021/08/05 10:30:02;;;;;;;4.78;1.70;;;21.80;99.90;;;;;;5073146;28;20024;-80
2021/08/05 10:32:28;;;;;;;4.75;2.28;;;21.70;99.90;;;;;;5072959;28;20497;-81
2021/08/05 10:34:54;;;;;;;8.43;1.90;;;21.90;99.90;;;;;;5073127;28;20036;-80
2021/08/05 10:37:20;;;;;;;3.97;1.77;;;21.80;99.90;;;;;;5078754;28;20024;-80
2021/08/05 10:39:47;;;;;;;4.13;2.35;;;21.90;99.90;;;;;;5054981;28;20115;-80
2021/08/05 10:42:17;;;;;;;9.07;2.40;;;22.20;99.90;;;;;;5054796;28;20025;-81
2021/08/05 10:44:44;;;;;;;12.32;2.10;;;22.30;99.90;;;;;;5072977;28;20036;-80
2021/08/05 10:47:22;;;;;;;5.43;1.98;;;22.10;99.90;;;;;;5074157;28;20100;-80
2021/08/05 10:49:52;;;;;;;3.33;2.30;;;22.30;99.90;;;;;;5093121;28;20031;-80
2021/08/05 10:52:47;;;;;;;3.53;2.00;;;22.20;99.90;;;;;;5088953;28;20032;-80
2021/08/05 10:55:15;;;;;;;4.03;2.25;;;22.40;99.90;;;;;;5070562;28;20036;-80
2021/08/05 10:57:45;;;;;;;6.47;2.22;;;22.50;99.90;;;;;;5072492;28;20404;-80
2021/08/05 11:00:14;;;;;;;6.03;2.20;;;22.70;99.90;;;;;;5072587;28;20023;-80
2021/08/05 11:02:56;;;;;;;2.85;2.00;;;23.00;99.90;;;;;;5057059;28;20028;-81
2021/08/05 11:05:21;;;;;;;6.07;1.80;;;23.10;99.90;;;;;;5092893;28;20031;-80
2021/08/05 11:07:48;;;;;;;9.32;2.67;;;23.10;99.90;;;;;;5092631;28;20035;-80
2021/08/05 11:10:14;;;;;;;3.83;2.45;;;23.30;99.90;;;;;;5074635;28;20032;-80
2021/08/05 11:12:48;;;;;;;4.10;1.98;;;23.30;99.90;;;;;;5073950;28;20057;-79
2021/08/05 11:15:21;;;;;;;4.07;1.90;;;23.20;99.90;;;;;;5072221;28;20016;-80
2021/08/05 11:18:18;;;;;;;5.35;2.15;;;23.20;99.90;;;;;;5054298;28;20724;-80
2021/08/05 11:20:55;;;;;;;3.67;2.10;;;23.30;99.90;;;;;;5054554;28;20640;-80
2021/08/05 11:23:34;;;;;;;4.75;2.10;;;23.30;99.90;;;;;;5074639;28;20500;-81
2021/08/05 11:25:59;;;;;;;5.03;2.30;;;23.20;99.90;;;;;;5074364;28;20043;-80
2021/08/05 11:28:41;;;;;;;4.45;2.13;;;23.30;99.90;;;;;;5092237;28;20020;-80
2021/08/05 11:31:11;;;;;;;5.32;2.40;;;23.00;99.90;;;;;;5092402;28;20042;-80
2021/08/05 11:33:37;;;;;;;5.20;2.20;;;22.90;99.90;;;;;;5089766;28;20499;-82
2021/08/05 11:36:27;;;;;;;6.32;2.80;;;23.00;99.90;;;;;;5054016;28;20079;-81
2021/08/05 11:39:16;;;;;;;4.22;2.30;;;22.80;99.90;;;;;;5071728;28;20024;-81
2021/08/05 11:41:46;;;;;;;3.15;1.75;;;22.80;99.90;;;;;;5071857;28;20042;-80
2021/08/05 11:44:30;;;;;;;3.08;1.73;;;23.10;99.90;;;;;;5075755;28;20027;-81
2021/08/05 11:47:00;;;;;;;3.38;2.10;;;23.20;99.90;;;;;;5073932;28;20084;-80
2021/08/05 11:49:39;;;;;;;4.28;1.85;;;23.40;99.90;;;;;;5091988;28;20020;-81
2021/08/05 11:52:14;;;;;;;3.85;1.83;;;23.70;99.90;;;;;;5091893;28;20020;-80
2021/08/05 11:54:46;;;;;;;6.10;2.00;;;23.90;99.90;;;;;;5086476;28;20039;-80
2021/08/05 11:57:16;;;;;;;5.13;1.95;;;23.90;99.90;;;;;;5071751;28;20080;-80
2021/08/05 11:59:44;;;;;;;9.32;2.03;;;24.20;99.90;;;;;;5053738;28;20073;-81
2021/08/05 12:02:15;;;;;;;13.27;2.35;;;24.50;99.90;;;;;;5071527;28;20059;-81
2021/08/05 12:04:41;;;;;;;14.85;2.45;;;25.30;99.90;;;;;;5054877;28;20442;-80
2021/08/05 12:07:30;;;;;;;4.82;2.08;;;25.50;99.90;;;;;;5053677;28;20131;-80
2021/08/05 12:09:56;;;;;;;6.28;1.90;;;25.70;99.90;;;;;;5071736;28;20070;-80
2021/08/05 12:12:24;;;;;;;4.07;1.80;;;25.60;99.90;;;;;;5071333;28;20418;-80
2021/08/05 12:14:55;;;;;;;10.65;2.15;;;25.70;99.90;;;;;;5071847;28;20028;-80
2021/08/05 12:17:39;;;;;;;4.30;1.65;;;25.90;99.90;;;;;;5072726;28;20029;-81
2021/08/05 12:20:19;;;;;;;1.90;1.50;;;26.60;99.90;;;;;;5071600;28;20107;-80
2021/08/05 12:22:51;;;;;;;3.80;1.42;;;27.20;99.90;;;;;;5053358;28;20366;-80
2021/08/05 12:25:28;;;;;;;4.47;1.65;;;27.10;99.90;;;;;;5054535;28;20039;-81
2021/08/05 12:27:55;;;;;;;4.32;1.52;;;26.50;99.90;;;;;;5091603;28;20032;-80
2021/08/05 12:30:21;;;;;;;5.20;1.38;;;26.10;99.90;;;;;;5091578;28;20413;-81
2021/08/05 12:33:01;;;;;;;7.32;2.20;;;26.60;99.90;;;;;;5073235;28;20124;-80
2021/08/05 12:35:26;;;;;;;3.50;1.40;;;27.30;99.90;;;;;;5091235;28;20035;-81
2021/08/05 12:38:13;;;;;;;2.42;1.25;;;27.80;99.90;;;;;;5071459;28;20028;-80
2021/08/05 12:40:44;;;;;;;2.45;1.17;;;28.30;99.90;;;;;;5071289;28;20480;-81
2021/08/05 12:43:11;;;;;;;1.77;1.42;;;29.00;99.90;;;;;;5071184;28;20035;-81
2021/08/05 12:45:40;;;;;;;1.83;1.40;;;29.10;99.90;;;;;;5053269;28;20493;-80
2021/08/05 12:48:06;;;;;;;5.72;1.98;;;28.80;99.90;;;;;;5071932;28;20028;-81
2021/08/05 12:50:37;;;;;;;9.13;1.40;;;28.50;99.90;;;;;;5091508;28;20035;-81